sensor_id;sensor_type;location;lat;lon;timestamp;temperature;humidity
18043;DHT22;9146;48.074;11.968;2023-03-01T00:00:05;0.20;99.90
18043;DHT22;9146;48.074;11.968;2023-03-01T00:02:33;0.20;99.90
18043;DHT22;9146;48.074;11.968;2023-03-01T00:05:02;0.20;99.90
18043;DHT22;9146;48.074;11.968;2023-03-01T00:07:29;0.20;99.90
18043;DHT22;9146;48.074;11.968;2023-03-01T00:09:56;0.20;99.90
18043;DHT22;9146;48.074;11.968;2023-03-01T00:12:23;0.20;99.90
18043;DHT22;9146;48.074;11.968;2023-03-01T00:14:50;0.20;99.90
18043;DHT22;9146;48.074;11.968;2023-03-01T00:17:16;0.20;99.90
18043;DHT22;9146;48.074;11.968;2023-03-01T00:19:43;0.20;99.90
18043;DHT22;9146;48.074;11.968;2023-03-01T00:22:12;0.20;99.90
18043;DHT22;9146;48.074;11.968;2023-03-01T00:24:39;0.10;99.90
18043;DHT22;9146;48.074;11.968;2023-03-01T00:27:06;0.20;99.90
18043;DHT22;9146;48.074;11.968;2023-03-01T00:29:33;0.10;99.90
18043;DHT22;9146;48.074;11.968;2023-03-01T00:32:00;0.10;99.90
18043;DHT22;9146;48.074;11.968;2023-03-01T00:34:27;0.10;99.90
18043;DHT22;9146;48.074;11.968;2023-03-01T00:36:54;0.10;99.90
18043;DHT22;9146;48.074;11.968;2023-03-01T00:39:22;0.10;99.90
18043;DHT22;9146;48.074;11.968;2023-03-01T00:41:49;0.10;99.90
18043;DHT22;9146;48.074;11.968;2023-03-01T00:44:16;0.10;99.90
18043;DHT22;9146;48.074;11.968;2023-03-01T00:46:43;0.10;99.90
18043;DHT22;9146;48.074;11.968;2023-03-01T00:49:10;0.10;99.90
18043;DHT22;9146;48.074;11.968;2023-03-01T00:51:40;0.10;99.90
18043;DHT22;9146;48.074;11.968;2023-03-01T00:54:08;0.10;99.90
18043;DHT22;9146;48.074;11.968;2023-03-01T00:56:37;0.10;99.90
18043;DHT22;9146;48.074;11.968;2023-03-01T00:59:04;0.10;99.90
18043;DHT22;9146;48.074;11.968;2023-03-01T01:01:31;0.10;99.90
18043;DHT22;9146;48.074;11.968;2023-03-01T01:03:59;0.10;99.90
18043;DHT22;9146;48.074;11.968;2023-03-01T01:06:28;0.10;99.90
18043;DHT22;9146;48.074;11.968;2023-03-01T01:08:56;0.10;99.90
18043;DHT22;9146;48.074;11.968;2023-03-01T01:11:25;0.10;99.90
18043;DHT22;9146;48.074;11.968;2023-03-01T01:13:54;0.00;99.90
18043;DHT22;9146;48.074;11.968;2023-03-01T01:16:23;0.00;99.90
18043;DHT22;9146;48.074;11.968;2023-03-01T01:18:50;0.10;99.90
18043;DHT22;9146;48.074;11.968;2023-03-01T01:21:21;0.00;99.90
18043;DHT22;9146;48.074;11.968;2023-03-01T01:23:48;0.00;99.90
18043;DHT22;9146;48.074;11.968;2023-03-01T01:26:17;0.00;99.90
18043;DHT22;9146;48.074;11.968;2023-03-01T01:28:45;0.00;99.90
18043;DHT22;9146;48.074;11.968;2023-03-01T01:31:14;0.00;99.90
18043;DHT22;9146;48.074;11.968;2023-03-01T01:33:41;0.00;99.90
18043;DHT22;9146;48.074;11.968;2023-03-01T01:36:08;0.00;99.90
18043;DHT22;9146;48.074;11.968;2023-03-01T01:38:36;0.00;99.90
18043;DHT22;9146;48.074;11.968;2023-03-01T01:41:04;0.00;99.90
18043;DHT22;9146;48.074;11.968;2023-03-01T01:43:34;0.00;99.90
18043;DHT22;9146;48.074;11.968;2023-03-01T01:46:04;0.00;99.90
18043;DHT22;9146;48.074;11.968;2023-03-01T01:48:39;0.00;99.90
18043;DHT22;9146;48.074;11.968;2023-03-01T01:51:13;0.00;99.90
18043;DHT22;9146;48.074;11.968;2023-03-01T01:53:41;-0.10;99.90
18043;DHT22;9146;48.074;11.968;2023-03-01T01:56:12;-0.10;99.90
18043;DHT22;9146;48.074;11.968;2023-03-01T01:58:41;-0.10;99.90
18043;DHT22;9146;48.074;11.968;2023-03-01T02:01:09;-0.10;99.90
18043;DHT22;9146;48.074;11.968;2023-03-01T02:03:39;-0.10;99.90
18043;DHT22;9146;48.074;11.968;2023-03-01T02:06:12;-0.10;99.90
18043;DHT22;9146;48.074;11.968;2023-03-01T02:08:42;0.00;99.90
18043;DHT22;9146;48.074;11.968;2023-03-01T02:11:11;-0.10;99.90
18043;DHT22;9146;48.074;11.968;2023-03-01T02:13:40;-0.10;99.90
18043;DHT22;9146;48.074;11.968;2023-03-01T02:16:09;-0.10;99.90
18043;DHT22;9146;48.074;11.968;2023-03-01T02:18:39;-0.10;99.90
18043;DHT22;9146;48.074;11.968;2023-03-01T02:21:14;-0.10;99.90
18043;DHT22;9146;48.074;11.968;2023-03-01T02:23:44;-0.20;99.90
18043;DHT22;9146;48.074;11.968;2023-03-01T02:26:17;-0.10;99.90
18043;DHT22;9146;48.074;11.968;2023-03-01T02:28:46;-0.20;99.90
18043;DHT22;9146;48.074;11.968;2023-03-01T02:31:16;-0.20;99.90
18043;DHT22;9146;48.074;11.968;2023-03-01T02:33:57;-0.20;99.90
18043;DHT22;9146;48.074;11.968;2023-03-01T02:36:28;-0.20;99.90
18043;DHT22;9146;48.074;11.968;2023-03-01T02:38:57;-0.20;99.90
18043;DHT22;9146;48.074;11.968;2023-03-01T02:41:29;-0.20;99.90
18043;DHT22;9146;48.074;11.968;2023-03-01T02:43:58;-0.30;99.90
18043;DHT22;9146;48.074;11.968;2023-03-01T02:46:26;-0.30;99.90
18043;DHT22;9146;48.074;11.968;2023-03-01T02:48:54;-0.30;99.90
18043;DHT22;9146;48.074;11.968;2023-03-01T02:51:34;-0.30;99.90
18043;DHT22;9146;48.074;11.968;2023-03-01T02:54:12;-0.30;99.90
18043;DHT22;9146;48.074;11.968;2023-03-01T02:56:43;-0.30;99.90
18043;DHT22;9146;48.074;11.968;2023-03-01T02:59:15;-0.40;99.90
18043;DHT22;9146;48.074;11.968;2023-03-01T03:01:43;-0.40;99.90
18043;DHT22;9146;48.074;11.968;2023-03-01T03:04:11;-0.40;99.90
18043;DHT22;9146;48.074;11.968;2023-03-01T03:06:43;-0.40;99.90
18043;DHT22;9146;48.074;11.968;2023-03-01T03:09:10;-0.40;99.90
18043;DHT22;9146;48.074;11.968;2023-03-01T03:11:37;-0.40;99.90
18043;DHT22;9146;48.074;11.968;2023-03-01T03:14:05;-0.40;99.90
18043;DHT22;9146;48.074;11.968;2023-03-01T03:16:40;-0.40;99.90
18043;DHT22;9146;48.074;11.968;2023-03-01T03:19:07;-0.40;99.90
18043;DHT22;9146;48.074;11.968;2023-03-01T03:21:34;-0.40;99.90
18043;DHT22;9146;48.074;11.968;2023-03-01T03:24:02;-0.50;99.90
18043;DHT22;9146;48.074;11.968;2023-03-01T03:26:29;-0.50;99.90
18043;DHT22;9146;48.074;11.968;2023-03-01T03:28:56;-0.50;99.90
18043;DHT22;9146;48.074;11.968;2023-03-01T03:31:24;-0.50;99.90
18043;DHT22;9146;48.074;11.968;2023-03-01T03:33:52;-0.50;99.90
18043;DHT22;9146;48.074;11.968;2023-03-01T03:36:21;-0.60;99.90
18043;DHT22;9146;48.074;11.968;2023-03-01T03:38:48;-0.60;99.90
18043;DHT22;9146;48.074;11.968;2023-03-01T03:41:16;-0.60;99.90
18043;DHT22;9146;48.074;11.968;2023-03-01T03:43:43;-0.70;99.90
18043;DHT22;9146;48.074;11.968;2023-03-01T03:46:11;-0.70;99.90
18043;DHT22;9146;48.074;11.968;2023-03-01T03:48:40;-0.70;99.90
18043;DHT22;9146;48.074;11.968;2023-03-01T03:51:10;-0.70;99.90
18043;DHT22;9146;48.074;11.968;2023-03-01T03:53:37;-0.70;99.90
18043;DHT22;9146;48.074;11.968;2023-03-01T03:56:05;-0.70;99.90
18043;DHT22;9146;48.074;11.968;2023-03-01T03:58:32;-0.80;99.90
18043;DHT22;9146;48.074;11.968;2023-03-01T04:00:59;-0.70;99.90
18043;DHT22;9146;48.074;11.968;2023-03-01T04:03:28;-0.80;99.90
18043;DHT22;9146;48.074;11.968;2023-03-01T04:05:57;-0.80;99.90
18043;DHT22;9146;48.074;11.968;2023-03-01T04:08:26;-0.80;99.90
18043;DHT22;9146;48.074;11.968;2023-03-01T04:10:58;-0.80;99.90
18043;DHT22;9146;48.074;11.968;2023-03-01T04:13:26;-0.90;99.90
18043;DHT22;9146;48.074;11.968;2023-03-01T04:15:53;-0.90;99.90
18043;DHT22;9146;48.074;11.968;2023-03-01T04:18:22;-0.90;99.90
18043;DHT22;9146;48.074;11.968;2023-03-01T04:20:50;-0.90;99.90
18043;DHT22;9146;48.074;11.968;2023-03-01T04:23:20;-0.90;99.90
18043;DHT22;9146;48.074;11.968;2023-03-01T04:25:52;-1.00;99.90
18043;DHT22;9146;48.074;11.968;2023-03-01T04:28:21;-1.10;99.90
18043;DHT22;9146;48.074;11.968;2023-03-01T04:30:50;-1.10;99.90
18043;DHT22;9146;48.074;11.968;2023-03-01T04:33:17;-1.10;99.90
18043;DHT22;9146;48.074;11.968;2023-03-01T04:35:44;-1.10;99.90
18043;DHT22;9146;48.074;11.968;2023-03-01T04:38:14;-1.20;99.90
18043;DHT22;9146;48.074;11.968;2023-03-01T04:40:41;-1.20;99.90
18043;DHT22;9146;48.074;11.968;2023-03-01T04:43:11;-1.20;99.90
18043;DHT22;9146;48.074;11.968;2023-03-01T04:45:39;-1.20;99.90
18043;DHT22;9146;48.074;11.968;2023-03-01T04:48:07;-1.20;99.90
18043;DHT22;9146;48.074;11.968;2023-03-01T04:50:35;-1.20;99.90
18043;DHT22;9146;48.074;11.968;2023-03-01T04:53:02;-1.30;99.90
18043;DHT22;9146;48.074;11.968;2023-03-01T04:55:29;-1.30;99.90
18043;DHT22;9146;48.074;11.968;2023-03-01T04:57:56;-1.30;99.90
18043;DHT22;9146;48.074;11.968;2023-03-01T05:00:25;-1.30;99.90
18043;DHT22;9146;48.074;11.968;2023-03-01T05:02:53;-1.30;99.90
18043;DHT22;9146;48.074;11.968;2023-03-01T05:05:23;-1.30;99.90
18043;DHT22;9146;48.074;11.968;2023-03-01T05:07:52;-1.40;99.90
18043;DHT22;9146;48.074;11.968;2023-03-01T05:10:19;-1.30;99.90
18043;DHT22;9146;48.074;11.968;2023-03-01T05:12:46;-1.40;99.90
18043;DHT22;9146;48.074;11.968;2023-03-01T05:15:13;-1.40;99.90
18043;DHT22;9146;48.074;11.968;2023-03-01T05:17:42;-1.40;99.90
18043;DHT22;9146;48.074;11.968;2023-03-01T05:20:10;-1.40;99.90
18043;DHT22;9146;48.074;11.968;2023-03-01T05:22:37;-1.40;99.90
18043;DHT22;9146;48.074;11.968;2023-03-01T05:25:05;-1.40;99.90
18043;DHT22;9146;48.074;11.968;2023-03-01T05:27:33;-1.50;99.90
18043;DHT22;9146;48.074;11.968;2023-03-01T05:30:00;-1.50;99.90
18043;DHT22;9146;48.074;11.968;2023-03-01T05:32:42;-1.50;99.90
18043;DHT22;9146;48.074;11.968;2023-03-01T05:35:10;-1.50;99.90
18043;DHT22;9146;48.074;11.968;2023-03-01T05:37:40;-1.50;99.90
18043;DHT22;9146;48.074;11.968;2023-03-01T05:40:09;-1.50;99.90
18043;DHT22;9146;48.074;11.968;2023-03-01T05:42:44;-1.50;99.90
18043;DHT22;9146;48.074;11.968;2023-03-01T05:45:12;-1.50;99.90
18043;DHT22;9146;48.074;11.968;2023-03-01T05:47:42;-1.50;99.90
18043;DHT22;9146;48.074;11.968;2023-03-01T05:50:14;-1.50;99.90
18043;DHT22;9146;48.074;11.968;2023-03-01T05:52:45;-1.50;99.90
18043;DHT22;9146;48.074;11.968;2023-03-01T05:55:12;-1.50;99.90
18043;DHT22;9146;48.074;11.968;2023-03-01T05:57:39;-1.50;99.90
18043;DHT22;9146;48.074;11.968;2023-03-01T06:00:07;-1.50;99.90
18043;DHT22;9146;48.074;11.968;2023-03-01T06:02:34;-1.50;99.90
18043;DHT22;9146;48.074;11.968;2023-03-01T06:05:03;-1.50;99.90
18043;DHT22;9146;48.074;11.968;2023-03-01T06:07:31;-1.50;99.90
18043;DHT22;9146;48.074;11.968;2023-03-01T06:09:58;-1.50;99.90
18043;DHT22;9146;48.074;11.968;2023-03-01T06:12:25;-1.50;99.90
18043;DHT22;9146;48.074;11.968;2023-03-01T06:14:52;-1.50;99.90
18043;DHT22;9146;48.074;11.968;2023-03-01T06:17:19;-1.50;99.90
18043;DHT22;9146;48.074;11.968;2023-03-01T06:19:46;-1.50;99.90
18043;DHT22;9146;48.074;11.968;2023-03-01T06:22:15;-1.50;99.90
18043;DHT22;9146;48.074;11.968;2023-03-01T06:24:42;-1.50;99.90
18043;DHT22;9146;48.074;11.968;2023-03-01T06:27:09;-1.50;99.90
18043;DHT22;9146;48.074;11.968;2023-03-01T06:29:36;-1.40;99.90
18043;DHT22;9146;48.074;11.968;2023-03-01T06:32:03;-1.40;99.90
18043;DHT22;9146;48.074;11.968;2023-03-01T06:34:30;-1.40;99.90
18043;DHT22;9146;48.074;11.968;2023-03-01T06:36:57;-1.40;99.90
18043;DHT22;9146;48.074;11.968;2023-03-01T06:39:27;-1.30;99.90
18043;DHT22;9146;48.074;11.968;2023-03-01T06:41:54;-1.40;99.90
18043;DHT22;9146;48.074;11.968;2023-03-01T06:44:21;-1.30;99.90
18043;DHT22;9146;48.074;11.968;2023-03-01T06:46:48;-1.20;99.90
18043;DHT22;9146;48.074;11.968;2023-03-01T06:49:15;-1.20;99.90
18043;DHT22;9146;48.074;11.968;2023-03-01T06:51:43;-1.20;99.90
18043;DHT22;9146;48.074;11.968;2023-03-01T06:54:10;-1.20;99.90
18043;DHT22;9146;48.074;11.968;2023-03-01T06:56:38;-1.20;99.90
18043;DHT22;9146;48.074;11.968;2023-03-01T06:59:05;-1.10;99.90
18043;DHT22;9146;48.074;11.968;2023-03-01T07:01:32;-1.10;99.90
18043;DHT22;9146;48.074;11.968;2023-03-01T07:03:59;-1.10;99.90
18043;DHT22;9146;48.074;11.968;2023-03-01T07:06:26;-1.00;99.90
18043;DHT22;9146;48.074;11.968;2023-03-01T07:08:54;-1.10;99.90
18043;DHT22;9146;48.074;11.968;2023-03-01T07:11:21;-1.00;99.90
18043;DHT22;9146;48.074;11.968;2023-03-01T07:13:50;-1.00;99.90
18043;DHT22;9146;48.074;11.968;2023-03-01T07:16:17;-0.90;99.90
18043;DHT22;9146;48.074;11.968;2023-03-01T07:18:45;-0.90;99.90
18043;DHT22;9146;48.074;11.968;2023-03-01T07:21:14;-0.80;99.90
18043;DHT22;9146;48.074;11.968;2023-03-01T07:23:42;-0.80;99.90
18043;DHT22;9146;48.074;11.968;2023-03-01T07:26:09;-0.70;99.90
18043;DHT22;9146;48.074;11.968;2023-03-01T07:28:36;-0.70;99.90
18043;DHT22;9146;48.074;11.968;2023-03-01T07:31:07;-0.70;99.90
18043;DHT22;9146;48.074;11.968;2023-03-01T07:33:34;-0.60;99.90
18043;DHT22;9146;48.074;11.968;2023-03-01T07:36:03;-0.60;99.90
18043;DHT22;9146;48.074;11.968;2023-03-01T07:38:30;-0.50;99.90
18043;DHT22;9146;48.074;11.968;2023-03-01T07:40:58;-0.50;99.90
18043;DHT22;9146;48.074;11.968;2023-03-01T07:43:26;-0.30;99.90
18043;DHT22;9146;48.074;11.968;2023-03-01T07:45:53;-0.30;99.90
18043;DHT22;9146;48.074;11.968;2023-03-01T07:48:21;-0.30;99.90
18043;DHT22;9146;48.074;11.968;2023-03-01T07:50:48;-0.30;99.90
18043;DHT22;9146;48.074;11.968;2023-03-01T07:53:15;-0.30;99.90
18043;DHT22;9146;48.074;11.968;2023-03-01T07:55:42;-0.20;99.90
18043;DHT22;9146;48.074;11.968;2023-03-01T07:58:09;-0.20;99.90
18043;DHT22;9146;48.074;11.968;2023-03-01T08:00:36;-0.20;99.90
18043;DHT22;9146;48.074;11.968;2023-03-01T08:03:03;-0.10;99.90
18043;DHT22;9146;48.074;11.968;2023-03-01T08:05:32;0.00;99.90
18043;DHT22;9146;48.074;11.968;2023-03-01T08:07:59;0.00;99.90
18043;DHT22;9146;48.074;11.968;2023-03-01T08:10:26;0.10;99.90
18043;DHT22;9146;48.074;11.968;2023-03-01T08:12:53;0.20;99.90
18043;DHT22;9146;48.074;11.968;2023-03-01T08:15:20;0.30;99.90
18043;DHT22;9146;48.074;11.968;2023-03-01T08:17:49;0.40;99.90
18043;DHT22;9146;48.074;11.968;2023-03-01T08:20:16;0.50;99.90
18043;DHT22;9146;48.074;11.968;2023-03-01T08:22:44;0.60;99.90
18043;DHT22;9146;48.074;11.968;2023-03-01T08:25:11;0.70;99.90
18043;DHT22;9146;48.074;11.968;2023-03-01T08:27:38;0.80;99.90
18043;DHT22;9146;48.074;11.968;2023-03-01T08:30:06;0.80;99.90
18043;DHT22;9146;48.074;11.968;2023-03-01T08:32:36;0.80;99.90
18043;DHT22;9146;48.074;11.968;2023-03-01T08:35:04;0.90;99.90
18043;DHT22;9146;48.074;11.968;2023-03-01T08:37:31;0.90;99.90
18043;DHT22;9146;48.074;11.968;2023-03-01T08:40:00;1.00;99.90
18043;DHT22;9146;48.074;11.968;2023-03-01T08:42:29;1.10;99.90
18043;DHT22;9146;48.074;11.968;2023-03-01T08:44:56;1.20;99.90
18043;DHT22;9146;48.074;11.968;2023-03-01T08:47:23;1.20;99.90
18043;DHT22;9146;48.074;11.968;2023-03-01T08:49:50;1.30;99.90
18043;DHT22;9146;48.074;11.968;2023-03-01T08:52:18;1.40;99.90
18043;DHT22;9146;48.074;11.968;2023-03-01T08:54:47;1.40;99.90
18043;DHT22;9146;48.074;11.968;2023-03-01T08:57:15;1.40;99.90
18043;DHT22;9146;48.074;11.968;2023-03-01T08:59:42;1.40;99.90
18043;DHT22;9146;48.074;11.968;2023-03-01T09:02:13;1.40;99.90
18043;DHT22;9146;48.074;11.968;2023-03-01T09:04:40;1.50;99.90
18043;DHT22;9146;48.074;11.968;2023-03-01T09:07:07;1.60;99.90
18043;DHT22;9146;48.074;11.968;2023-03-01T09:09:35;1.60;99.90
18043;DHT22;9146;48.074;11.968;2023-03-01T09:12:02;1.60;99.90
18043;DHT22;9146;48.074;11.968;2023-03-01T09:14:30;1.70;99.90
18043;DHT22;9146;48.074;11.968;2023-03-01T09:16:57;1.80;99.90
18043;DHT22;9146;48.074;11.968;2023-03-01T09:19:28;1.80;99.90
18043;DHT22;9146;48.074;11.968;2023-03-01T09:21:55;1.90;99.90
18043;DHT22;9146;48.074;11.968;2023-03-01T09:24:24;2.00;99.90
18043;DHT22;9146;48.074;11.968;2023-03-01T09:26:54;2.10;99.90
18043;DHT22;9146;48.074;11.968;2023-03-01T09:29:22;2.20;99.90
18043;DHT22;9146;48.074;11.968;2023-03-01T09:31:50;2.20;99.90
18043;DHT22;9146;48.074;11.968;2023-03-01T09:34:20;2.20;99.90
18043;DHT22;9146;48.074;11.968;2023-03-01T09:36:49;2.20;99.90
18043;DHT22;9146;48.074;11.968;2023-03-01T09:39:16;2.20;99.90
18043;DHT22;9146;48.074;11.968;2023-03-01T09:41:47;2.40;99.90
18043;DHT22;9146;48.074;11.968;2023-03-01T09:44:29;2.40;99.90
18043;DHT22;9146;48.074;11.968;2023-03-01T09:46:59;2.30;99.90
18043;DHT22;9146;48.074;11.968;2023-03-01T09:49:28;2.40;99.90
18043;DHT22;9146;48.074;11.968;2023-03-01T09:52:00;2.30;99.90
18043;DHT22;9146;48.074;11.968;2023-03-01T09:54:30;2.30;99.90
18043;DHT22;9146;48.074;11.968;2023-03-01T09:57:06;2.40;99.90
18043;DHT22;9146;48.074;11.968;2023-03-01T09:59:50;2.40;99.90
18043;DHT22;9146;48.074;11.968;2023-03-01T10:02:29;2.50;99.90
18043;DHT22;9146;48.074;11.968;2023-03-01T10:05:05;2.50;99.90
18043;DHT22;9146;48.074;11.968;2023-03-01T10:07:40;2.60;99.90
18043;DHT22;9146;48.074;11.968;2023-03-01T10:10:21;2.70;99.90
18043;DHT22;9146;48.074;11.968;2023-03-01T10:12:50;2.70;99.90
18043;DHT22;9146;48.074;11.968;2023-03-01T10:15:20;2.80;99.90
18043;DHT22;9146;48.074;11.968;2023-03-01T10:17:52;2.90;99.90
18043;DHT22;9146;48.074;11.968;2023-03-01T10:20:26;2.90;99.90
18043;DHT22;9146;48.074;11.968;2023-03-01T10:22:53;3.00;99.90
18043;DHT22;9146;48.074;11.968;2023-03-01T10:25:36;3.10;99.90
18043;DHT22;9146;48.074;11.968;2023-03-01T10:28:12;3.10;99.90
18043;DHT22;9146;48.074;11.968;2023-03-01T10:30:42;3.10;99.90
18043;DHT22;9146;48.074;11.968;2023-03-01T10:33:16;3.20;99.90
18043;DHT22;9146;48.074;11.968;2023-03-01T10:35:44;3.20;99.90
18043;DHT22;9146;48.074;11.968;2023-03-01T10:38:14;3.40;99.90
18043;DHT22;9146;48.074;11.968;2023-03-01T10:40:54;3.40;99.90
18043;DHT22;9146;48.074;11.968;2023-03-01T10:43:23;3.60;99.90
18043;DHT22;9146;48.074;11.968;2023-03-01T10:45:51;3.70;99.90
18043;DHT22;9146;48.074;11.968;2023-03-01T10:48:20;3.60;99.90
18043;DHT22;9146;48.074;11.968;2023-03-01T10:50:51;3.50;99.90
18043;DHT22;9146;48.074;11.968;2023-03-01T10:53:33;3.30;99.90
18043;DHT22;9146;48.074;11.968;2023-03-01T10:56:03;3.10;99.90
18043;DHT22;9146;48.074;11.968;2023-03-01T10:58:32;2.80;99.90
18043;DHT22;9146;48.074;11.968;2023-03-01T11:01:00;2.60;99.90
18043;DHT22;9146;48.074;11.968;2023-03-01T11:03:31;2.50;99.90
18043;DHT22;9146;48.074;11.968;2023-03-01T11:06:02;2.20;99.90
18043;DHT22;9146;48.074;11.968;2023-03-01T11:08:34;2.10;99.90
18043;DHT22;9146;48.074;11.968;2023-03-01T11:11:10;2.00;99.90
18043;DHT22;9146;48.074;11.968;2023-03-01T11:13:54;2.00;99.90
18043;DHT22;9146;48.074;11.968;2023-03-01T11:16:31;2.00;99.90
18043;DHT22;9146;48.074;11.968;2023-03-01T11:19:13;2.00;99.90
18043;DHT22;9146;48.074;11.968;2023-03-01T11:21:44;1.90;99.90
18043;DHT22;9146;48.074;11.968;2023-03-01T11:24:15;1.90;99.90
18043;DHT22;9146;48.074;11.968;2023-03-01T11:26:47;2.00;99.90
18043;DHT22;9146;48.074;11.968;2023-03-01T11:29:26;2.00;99.90
18043;DHT22;9146;48.074;11.968;2023-03-01T11:31:57;2.00;99.90
18043;DHT22;9146;48.074;11.968;2023-03-01T11:34:40;2.10;99.90
18043;DHT22;9146;48.074;11.968;2023-03-01T11:37:15;2.10;99.90
18043;DHT22;9146;48.074;11.968;2023-03-01T11:39:49;2.10;99.90
18043;DHT22;9146;48.074;11.968;2023-03-01T11:42:20;2.10;99.90
18043;DHT22;9146;48.074;11.968;2023-03-01T11:44:50;2.10;99.90
18043;DHT22;9146;48.074;11.968;2023-03-01T11:47:29;2.20;99.90
18043;DHT22;9146;48.074;11.968;2023-03-01T11:50:26;2.20;99.90
18043;DHT22;9146;48.074;11.968;2023-03-01T11:53:05;2.30;99.90
18043;DHT22;9146;48.074;11.968;2023-03-01T11:55:46;2.30;99.90
18043;DHT22;9146;48.074;11.968;2023-03-01T11:58:29;2.40;99.90
18043;DHT22;9146;48.074;11.968;2023-03-01T12:01:14;2.40;99.90
18043;DHT22;9146;48.074;11.968;2023-03-01T12:04:16;2.50;99.90
18043;DHT22;9146;48.074;11.968;2023-03-01T12:06:52;2.60;99.90
18043;DHT22;9146;48.074;11.968;2023-03-01T12:09:38;2.70;99.90
18043;DHT22;9146;48.074;11.968;2023-03-01T12:12:30;2.80;99.90
18043;DHT22;9146;48.074;11.968;2023-03-01T12:18:13;3.10;99.90
18043;DHT22;9146;48.074;11.968;2023-03-01T12:20:53;3.20;99.90
18043;DHT22;9146;48.074;11.968;2023-03-01T12:23:44;3.30;99.90
18043;DHT22;9146;48.074;11.968;2023-03-01T12:26:29;3.40;99.90
18043;DHT22;9146;48.074;11.968;2023-03-01T12:29:07;3.30;99.90
18043;DHT22;9146;48.074;11.968;2023-03-01T12:34:50;3.20;99.90
18043;DHT22;9146;48.074;11.968;2023-03-01T12:37:28;3.20;99.90
18043;DHT22;9146;48.074;11.968;2023-03-01T12:40:21;3.20;99.90
18043;DHT22;9146;48.074;11.968;2023-03-01T12:42:58;3.10;99.90
18043;DHT22;9146;48.074;11.968;2023-03-01T12:45:40;3.20;99.90
18043;DHT22;9146;48.074;11.968;2023-03-01T12:48:31;3.20;99.90
18043;DHT22;9146;48.074;11.968;2023-03-01T12:51:04;3.20;99.90
18043;DHT22;9146;48.074;11.968;2023-03-01T12:53:35;3.20;99.90
18043;DHT22;9146;48.074;11.968;2023-03-01T12:56:06;3.20;99.90
18043;DHT22;9146;48.074;11.968;2023-03-01T12:58:39;3.30;99.90
18043;DHT22;9146;48.074;11.968;2023-03-01T13:01:19;3.40;99.90
18043;DHT22;9146;48.074;11.968;2023-03-01T13:04:11;3.40;99.90
18043;DHT22;9146;48.074;11.968;2023-03-01T13:06:44;3.50;99.90
18043;DHT22;9146;48.074;11.968;2023-03-01T13:09:20;3.50;99.90
18043;DHT22;9146;48.074;11.968;2023-03-01T13:11:51;3.60;99.90
18043;DHT22;9146;48.074;11.968;2023-03-01T13:14:36;3.70;99.90
18043;DHT22;9146;48.074;11.968;2023-03-01T13:17:07;3.60;99.90
18043;DHT22;9146;48.074;11.968;2023-03-01T13:19:57;3.60;99.90
18043;DHT22;9146;48.074;11.968;2023-03-01T13:22:30;3.60;99.90
18043;DHT22;9146;48.074;11.968;2023-03-01T13:25:11;3.60;99.90
18043;DHT22;9146;48.074;11.968;2023-03-01T13:27:40;3.60;99.90
18043;DHT22;9146;48.074;11.968;2023-03-01T13:30:41;3.70;99.90
18043;DHT22;9146;48.074;11.968;2023-03-01T13:33:37;3.70;99.90
18043;DHT22;9146;48.074;11.968;2023-03-01T13:36:07;3.80;99.90
18043;DHT22;9146;48.074;11.968;2023-03-01T13:38:38;3.80;99.90
18043;DHT22;9146;48.074;11.968;2023-03-01T13:41:07;3.80;99.90
18043;DHT22;9146;48.074;11.968;2023-03-01T13:43:36;3.90;99.90
18043;DHT22;9146;48.074;11.968;2023-03-01T13:46:11;3.90;99.90
18043;DHT22;9146;48.074;11.968;2023-03-01T13:48:39;4.00;99.90
18043;DHT22;9146;48.074;11.968;2023-03-01T13:51:09;4.00;99.90
18043;DHT22;9146;48.074;11.968;2023-03-01T13:53:42;4.00;99.90
18043;DHT22;9146;48.074;11.968;2023-03-01T13:56:12;4.10;99.90
18043;DHT22;9146;48.074;11.968;2023-03-01T13:58:48;4.10;99.90
18043;DHT22;9146;48.074;11.968;2023-03-01T14:01:24;4.10;99.90
18043;DHT22;9146;48.074;11.968;2023-03-01T14:03:52;4.10;99.90
18043;DHT22;9146;48.074;11.968;2023-03-01T14:06:24;4.20;99.90
18043;DHT22;9146;48.074;11.968;2023-03-01T14:09:00;4.20;99.90
18043;DHT22;9146;48.074;11.968;2023-03-01T14:14:37;4.30;99.90
18043;DHT22;9146;48.074;11.968;2023-03-01T14:20:11;4.40;99.90
18043;DHT22;9146;48.074;11.968;2023-03-01T14:22:41;4.40;99.90
18043;DHT22;9146;48.074;11.968;2023-03-01T14:25:21;4.40;99.90
18043;DHT22;9146;48.074;11.968;2023-03-01T14:27:56;4.40;99.90
18043;DHT22;9146;48.074;11.968;2023-03-01T14:30:26;4.40;99.90
18043;DHT22;9146;48.074;11.968;2023-03-01T14:32:57;4.40;99.90
18043;DHT22;9146;48.074;11.968;2023-03-01T14:35:27;4.40;99.90
18043;DHT22;9146;48.074;11.968;2023-03-01T14:37:54;4.40;99.90
18043;DHT22;9146;48.074;11.968;2023-03-01T14:40:24;4.50;99.90
18043;DHT22;9146;48.074;11.968;2023-03-01T14:42:52;4.50;99.90
18043;DHT22;9146;48.074;11.968;2023-03-01T14:45:20;4.60;99.90
18043;DHT22;9146;48.074;11.968;2023-03-01T14:47:47;4.60;99.90
18043;DHT22;9146;48.074;11.968;2023-03-01T14:50:28;4.60;99.90
18043;DHT22;9146;48.074;11.968;2023-03-01T14:52:58;4.60;99.90
18043;DHT22;9146;48.074;11.968;2023-03-01T14:55:28;4.70;99.90
18043;DHT22;9146;48.074;11.968;2023-03-01T14:57:57;4.70;99.90
18043;DHT22;9146;48.074;11.968;2023-03-01T15:00:26;4.70;99.90
18043;DHT22;9146;48.074;11.968;2023-03-01T15:02:55;4.70;99.90
18043;DHT22;9146;48.074;11.968;2023-03-01T15:05:29;4.70;99.90
18043;DHT22;9146;48.074;11.968;2023-03-01T15:07:58;4.80;99.90
18043;DHT22;9146;48.074;11.968;2023-03-01T15:10:27;4.80;99.90
18043;DHT22;9146;48.074;11.968;2023-03-01T15:12:54;4.80;99.90
18043;DHT22;9146;48.074;11.968;2023-03-01T15:15:31;4.80;99.90
18043;DHT22;9146;48.074;11.968;2023-03-01T15:17:59;4.80;99.90
18043;DHT22;9146;48.074;11.968;2023-03-01T15:20:30;4.80;99.90
18043;DHT22;9146;48.074;11.968;2023-03-01T15:23:01;4.90;99.90
18043;DHT22;9146;48.074;11.968;2023-03-01T15:25:30;4.80;99.90
18043;DHT22;9146;48.074;11.968;2023-03-01T15:27:58;4.80;99.90
18043;DHT22;9146;48.074;11.968;2023-03-01T15:30:30;4.80;99.90
18043;DHT22;9146;48.074;11.968;2023-03-01T15:33:27;4.80;99.90
18043;DHT22;9146;48.074;11.968;2023-03-01T15:35:56;4.80;99.90
18043;DHT22;9146;48.074;11.968;2023-03-01T15:38:35;4.80;99.90
18043;DHT22;9146;48.074;11.968;2023-03-01T15:41:05;4.90;99.90
18043;DHT22;9146;48.074;11.968;2023-03-01T15:43:48;4.80;99.90
18043;DHT22;9146;48.074;11.968;2023-03-01T15:46:21;4.90;99.90
18043;DHT22;9146;48.074;11.968;2023-03-01T15:48:52;4.90;99.90
18043;DHT22;9146;48.074;11.968;2023-03-01T15:51:27;4.90;99.90
18043;DHT22;9146;48.074;11.968;2023-03-01T15:53:56;4.90;99.90
18043;DHT22;9146;48.074;11.968;2023-03-01T15:56:25;4.90;99.90
18043;DHT22;9146;48.074;11.968;2023-03-01T15:58:52;4.80;99.90
18043;DHT22;9146;48.074;11.968;2023-03-01T16:01:19;4.80;99.90
18043;DHT22;9146;48.074;11.968;2023-03-01T16:03:46;4.80;99.90
18043;DHT22;9146;48.074;11.968;2023-03-01T16:06:13;4.70;99.90
18043;DHT22;9146;48.074;11.968;2023-03-01T16:08:41;4.60;99.90
18043;DHT22;9146;48.074;11.968;2023-03-01T16:11:15;4.50;99.90
18043;DHT22;9146;48.074;11.968;2023-03-01T16:13:42;4.40;99.90